createdAt,value
2018-08-13T00:01:46.198Z,12.93
2018-08-13T00:04:14.590Z,10.63
2018-08-13T00:06:42.996Z,13.63
2018-08-13T00:09:11.386Z,10.90
2018-08-13T00:11:39.784Z,10.23
2018-08-13T00:14:08.244Z,11.50
2018-08-13T00:16:36.630Z,10.60
2018-08-13T00:19:05.035Z,12.30
2018-08-13T00:21:33.429Z,10.70
2018-08-13T00:24:01.848Z,11.07
2018-08-13T00:26:30.246Z,11.23
2018-08-13T00:28:58.665Z,11.47
2018-08-13T00:31:27.082Z,12.50
2018-08-13T00:33:55.479Z,11.77
2018-08-13T00:36:23.887Z,12.13
2018-08-13T00:38:52.301Z,15.03
2018-08-13T00:41:20.699Z,15.13
2018-08-13T00:43:49.109Z,16.83
2018-08-13T00:46:17.524Z,10.97
2018-08-13T00:48:45.942Z,10.53
2018-08-13T00:51:14.334Z,10.53
2018-08-13T00:53:42.723Z,10.33
2018-08-13T00:56:11.133Z,10.07
2018-08-13T00:58:39.516Z,11.03
2018-08-13T01:01:07.928Z,10.00
2018-08-13T01:03:37.157Z,8.77
2018-08-13T01:06:05.561Z,8.63
2018-08-13T01:08:33.955Z,10.60
2018-08-13T01:11:02.725Z,11.30
2018-08-13T01:13:31.150Z,9.90
2018-08-13T01:16:00.469Z,9.20
2018-08-13T01:18:28.857Z,10.70
2018-08-13T01:20:57.250Z,9.47
2018-08-13T01:23:25.634Z,8.93
2018-08-13T01:25:54.938Z,9.77
2018-08-13T01:28:23.340Z,8.93
2018-08-13T01:30:51.732Z,10.07
2018-08-13T01:33:20.152Z,9.03
2018-08-13T01:35:48.938Z,7.57
2018-08-13T01:38:17.334Z,8.53
2018-08-13T01:40:46.294Z,8.80
2018-08-13T01:43:14.698Z,9.33
2018-08-13T01:45:43.088Z,9.03
2018-08-13T01:48:11.472Z,8.73
2018-08-13T01:50:39.859Z,11.07
2018-08-13T01:53:11.024Z,8.43
2018-08-13T01:55:40.008Z,9.30
2018-08-13T01:58:08.402Z,9.83
2018-08-13T02:00:36.798Z,11.90
2018-08-13T02:03:06.326Z,9.67
2018-08-13T02:05:34.720Z,8.87
2018-08-13T02:08:03.121Z,10.67
2018-08-13T02:10:31.536Z,10.57
2018-08-13T02:13:00.770Z,9.70
2018-08-13T02:15:29.194Z,12.60
2018-08-13T02:17:57.587Z,11.10
2018-08-13T02:20:25.966Z,10.17
2018-08-13T02:22:54.368Z,10.83
2018-08-13T02:25:23.174Z,11.87
2018-08-13T02:27:51.624Z,11.70
2018-08-13T02:30:20.037Z,11.87
2018-08-13T02:32:48.438Z,11.47
2018-08-13T02:35:16.845Z,12.63
2018-08-13T02:37:45.243Z,13.43
2018-08-13T02:40:13.669Z,12.47
2018-08-13T02:42:42.073Z,11.93
2018-08-13T02:45:11.687Z,10.40
2018-08-13T02:47:40.082Z,11.10
2018-08-13T02:50:12.252Z,12.87
2018-08-13T02:52:41.121Z,12.03
2018-08-13T02:55:11.146Z,10.50
2018-08-13T02:57:39.577Z,11.63
2018-08-13T03:00:10.207Z,12.10
2018-08-13T03:02:38.953Z,16.57
2018-08-13T03:05:10.668Z,11.53
2018-08-13T03:07:40.207Z,12.80
2018-08-13T03:10:11.772Z,12.47
2018-08-13T03:12:40.168Z,13.33
2018-08-13T03:15:12.301Z,11.47
2018-08-13T03:17:40.710Z,12.47
2018-08-13T03:20:09.712Z,11.77
2018-08-13T03:22:38.123Z,10.83
2018-08-13T03:25:09.278Z,11.73
2018-08-13T03:27:37.721Z,12.50
2018-08-13T03:30:09.818Z,11.40
2018-08-13T03:32:39.478Z,13.37
2018-08-13T03:35:08.461Z,12.03
2018-08-13T03:37:36.950Z,12.13
2018-08-13T03:40:08.390Z,13.10
2018-08-13T03:42:36.802Z,12.53
2018-08-13T03:45:08.002Z,12.83
2018-08-13T03:47:36.428Z,12.53
2018-08-13T03:50:06.830Z,9.57
2018-08-13T03:52:35.206Z,12.87
2018-08-13T03:55:03.606Z,10.57
2018-08-13T03:57:32.002Z,11.37
2018-08-13T04:00:00.843Z,12.10
2018-08-13T04:02:29.950Z,15.83
2018-08-13T04:04:58.829Z,16.20
2018-08-13T04:07:27.243Z,22.30
2018-08-13T04:09:55.774Z,22.13
2018-08-13T04:12:24.165Z,10.50
2018-08-13T04:14:52.562Z,13.23
2018-08-13T04:17:20.952Z,13.17
2018-08-13T04:19:49.342Z,12.67
2018-08-13T04:22:18.179Z,15.57
2018-08-13T04:24:46.790Z,16.80
2018-08-13T04:27:15.176Z,16.90
2018-08-13T04:29:43.606Z,14.57
2018-08-13T04:32:12.005Z,25.60
2018-08-13T04:34:40.411Z,21.67
2018-08-13T04:37:08.811Z,10.97
2018-08-13T04:39:38.057Z,13.23
2018-08-13T04:42:06.459Z,13.00
2018-08-13T04:44:38.133Z,13.03
2018-08-13T04:47:06.521Z,11.43
2018-08-13T04:49:34.922Z,12.40
2018-08-13T04:52:03.323Z,9.73
2018-08-13T04:54:31.717Z,9.97
2018-08-13T04:57:00.506Z,9.53
2018-08-13T04:59:28.890Z,10.40
2018-08-13T05:01:57.304Z,8.47
2018-08-13T05:04:25.693Z,8.97
2018-08-13T05:06:54.946Z,9.27
2018-08-13T05:09:23.358Z,8.40
2018-08-13T05:11:51.778Z,9.17
2018-08-13T05:14:20.172Z,8.17
2018-08-13T05:16:49.012Z,8.60
2018-08-13T05:19:17.433Z,8.30
2018-08-13T05:21:45.828Z,7.30
2018-08-13T05:24:14.230Z,8.50
2018-08-13T05:26:42.656Z,8.97
2018-08-13T05:29:11.040Z,9.03
2018-08-13T05:31:39.761Z,9.90
2018-08-13T05:34:08.166Z,11.30
2018-08-13T05:36:36.576Z,14.23
2018-08-13T05:39:09.384Z,7.20
2018-08-13T05:41:37.786Z,7.60
2018-08-13T05:44:06.224Z,6.03
2018-08-13T05:46:35.874Z,6.93
2018-08-13T05:49:04.792Z,6.53
2018-08-13T05:51:33.199Z,6.00
2018-08-13T05:54:01.721Z,6.00
2018-08-13T05:56:30.740Z,5.93
2018-08-13T05:58:59.155Z,5.30
2018-08-13T06:01:27.567Z,6.90
2018-08-13T06:03:55.967Z,5.43
2018-08-13T06:06:24.352Z,5.10
2018-08-13T06:08:53.776Z,6.03
2018-08-13T06:11:22.672Z,6.30
2018-08-13T06:13:51.059Z,8.50
2018-08-13T06:16:19.611Z,7.13
2018-08-13T06:18:48.018Z,12.80
2018-08-13T06:21:16.701Z,9.03
2018-08-13T06:23:45.186Z,7.43
2018-08-13T06:26:13.599Z,9.07
2018-08-13T06:28:42.006Z,9.27
2018-08-13T06:31:10.419Z,10.17
2018-08-13T06:33:39.108Z,7.30
2018-08-13T06:36:07.511Z,6.87
2018-08-13T06:38:35.913Z,4.60
2018-08-13T06:41:04.336Z,4.23
2018-08-13T06:43:32.787Z,4.27
2018-08-13T06:46:01.562Z,4.57
2018-08-13T06:48:29.970Z,6.70
2018-08-13T06:50:58.846Z,5.07
2018-08-13T06:53:27.240Z,4.23
2018-08-13T06:55:55.941Z,6.27
2018-08-13T06:58:24.349Z,4.47
2018-08-13T07:00:52.758Z,4.53
2018-08-13T07:03:21.180Z,7.43
2018-08-13T07:05:49.577Z,5.07
2018-08-13T07:08:18.024Z,5.23
2018-08-13T07:10:46.686Z,7.10
2018-08-13T07:13:15.076Z,5.30
2018-08-13T07:15:43.564Z,5.73
2018-08-13T07:18:11.926Z,4.87
2018-08-13T07:20:40.324Z,6.33
2018-08-13T07:23:08.725Z,8.70
2018-08-13T07:25:37.596Z,8.47
2018-08-13T07:28:06.233Z,9.60
2018-08-13T07:30:34.630Z,8.37
2018-08-13T07:33:03.026Z,6.83
2018-08-13T07:35:31.458Z,10.77
2018-08-13T07:38:00.470Z,5.27
2018-08-13T07:40:29.106Z,4.47
2018-08-13T07:42:57.573Z,4.30
2018-08-13T07:45:26.002Z,5.67
2018-08-13T07:47:54.368Z,4.90
2018-08-13T07:50:22.764Z,4.43
2018-08-13T07:52:51.150Z,4.63
2018-08-13T07:55:20.097Z,4.77
2018-08-13T07:57:48.499Z,5.33
2018-08-13T08:00:22.575Z,4.53
2018-08-13T08:02:50.960Z,5.17
2018-08-13T08:05:19.352Z,5.57
2018-08-13T08:07:48.575Z,4.60
2018-08-13T08:10:17.806Z,5.63
2018-08-13T08:12:46.339Z,4.60
2018-08-13T08:15:16.965Z,7.23
2018-08-13T08:17:45.577Z,6.00
2018-08-13T08:20:14.073Z,5.50
2018-08-13T08:22:42.475Z,7.10
2018-08-13T08:25:17.649Z,8.67
2018-08-13T08:27:46.066Z,9.27
2018-08-13T08:30:14.915Z,10.23
2018-08-13T08:32:43.346Z,10.00
2018-08-13T08:35:13.210Z,9.10
2018-08-13T08:37:41.812Z,7.83
2018-08-13T08:40:13.705Z,10.57
2018-08-13T08:42:42.146Z,11.97
2018-08-13T08:45:16.059Z,10.93
2018-08-13T08:47:45.583Z,11.80
2018-08-13T08:50:15.499Z,12.27
2018-08-13T08:52:45.551Z,12.33
2018-08-13T08:55:14.343Z,10.27
2018-08-13T08:57:42.786Z,8.37
2018-08-13T09:00:16.378Z,11.97
2018-08-13T09:02:45.036Z,8.17
2018-08-13T09:05:14.154Z,7.57
2018-08-13T09:07:43.807Z,6.80
2018-08-13T09:10:12.974Z,5.77
2018-08-13T09:12:41.361Z,5.93
2018-08-13T09:15:13.080Z,6.60
2018-08-13T09:17:53.276Z,11.27
2018-08-13T09:20:33.005Z,8.50
2018-08-13T09:23:12.598Z,9.87
2018-08-13T09:25:52.141Z,9.17
2018-08-13T09:28:31.897Z,6.63
2018-08-13T09:33:15.899Z,6.60
2018-08-13T09:35:44.399Z,7.00
2018-08-13T09:38:12.803Z,5.00
2018-08-13T09:40:41.221Z,5.37
2018-08-13T09:43:09.626Z,5.20
2018-08-13T09:45:38.468Z,4.83
2018-08-13T09:48:07.167Z,3.80
2018-08-13T09:50:35.571Z,8.13
2018-08-13T09:53:03.975Z,8.33
2018-08-13T09:55:32.388Z,5.80
2018-08-13T09:58:00.794Z,5.60
2018-08-13T10:00:34.573Z,4.70
2018-08-13T10:03:02.970Z,6.67
2018-08-13T10:05:31.409Z,7.23
2018-08-13T10:07:59.815Z,7.17
2018-08-13T10:10:28.307Z,5.87
2018-08-13T10:12:56.746Z,6.40
2018-08-13T10:15:25.167Z,7.70
2018-08-13T10:17:53.627Z,6.10
2018-08-13T10:20:22.576Z,4.93
2018-08-13T10:22:50.991Z,5.17
2018-08-13T10:25:19.403Z,4.47
2018-08-13T10:27:58.008Z,4.43
2018-08-13T10:30:26.733Z,4.00
2018-08-13T10:32:55.142Z,3.63
2018-08-13T10:35:23.563Z,3.53
2018-08-13T10:37:53.518Z,2.33
2018-08-13T10:40:21.913Z,3.73
2018-08-13T10:42:50.311Z,3.00
2018-08-13T10:45:18.831Z,3.37
2018-08-13T10:47:47.231Z,3.80
2018-08-13T10:50:16.241Z,2.83
2018-08-13T10:52:44.711Z,3.30
2018-08-13T10:55:15.170Z,2.80
2018-08-13T10:57:44.141Z,4.77
2018-08-13T11:00:15.217Z,2.53
2018-08-13T11:02:43.609Z,2.40
2018-08-13T11:05:13.806Z,3.40
2018-08-13T11:07:42.257Z,2.67
2018-08-13T11:10:13.279Z,2.77
2018-08-13T11:12:41.688Z,2.50
2018-08-13T11:15:16.645Z,3.07
2018-08-13T11:17:45.902Z,3.50
2018-08-13T11:20:14.294Z,2.27
2018-08-13T11:22:43.926Z,2.27
2018-08-13T11:25:14.215Z,5.07
2018-08-13T11:27:43.382Z,1.97
2018-08-13T11:30:13.876Z,3.90
2018-08-13T11:32:42.570Z,4.37
2018-08-13T11:35:10.998Z,3.10
2018-08-13T11:37:40.950Z,2.57
2018-08-13T11:40:15.073Z,5.10
2018-08-13T11:42:43.500Z,2.67
2018-08-13T11:45:12.086Z,2.20
2018-08-13T11:47:41.307Z,2.40
2018-08-13T11:50:19.442Z,1.40
2018-08-13T11:52:49.650Z,1.97
2018-08-13T11:55:19.160Z,2.03
2018-08-13T11:57:49.295Z,2.23
2018-08-13T12:00:17.725Z,2.33
2018-08-13T12:02:46.158Z,2.53
2018-08-13T12:05:16.316Z,2.20
2018-08-13T12:07:45.469Z,4.07
2018-08-13T12:10:14.475Z,2.43
2018-08-13T12:12:43.781Z,2.10
2018-08-13T12:15:12.978Z,2.30
2018-08-13T12:17:41.959Z,1.63
2018-08-13T12:20:19.247Z,1.70
2018-08-13T12:22:48.133Z,4.87
2018-08-13T12:25:19.708Z,2.07
2018-08-13T12:27:48.128Z,4.07
2018-08-13T12:30:16.776Z,3.00
2018-08-13T12:32:45.195Z,3.00
2018-08-13T12:35:13.674Z,6.90
2018-08-13T12:37:42.467Z,5.33
2018-08-13T12:40:11.078Z,1.87
2018-08-13T12:42:40.282Z,4.53
2018-08-13T12:45:11.431Z,2.93
2018-08-13T12:47:40.004Z,2.17
2018-08-13T12:50:11.696Z,3.47
2018-08-13T12:52:40.744Z,2.33
2018-08-13T12:55:10.034Z,2.17
2018-08-13T12:57:38.448Z,3.90
2018-08-13T13:00:12.344Z,1.73
2018-08-13T13:02:41.216Z,2.07
2018-08-13T13:05:11.959Z,4.03
2018-08-13T13:07:40.917Z,2.93
2018-08-13T13:10:12.387Z,3.30
2018-08-13T13:12:47.022Z,3.40
2018-08-13T13:15:18.435Z,2.77
2018-08-13T13:17:47.035Z,3.53
2018-08-13T13:20:23.231Z,2.93
2018-08-13T13:22:58.898Z,4.73
2018-08-13T13:25:27.473Z,4.50
2018-08-13T13:27:56.630Z,3.70
2018-08-13T13:30:25.111Z,4.70
2018-08-13T13:32:53.848Z,13.50
2018-08-13T13:35:22.283Z,7.43
2018-08-13T13:37:50.841Z,3.67
2018-08-13T13:40:19.338Z,4.40
2018-08-13T13:42:48.384Z,3.27
2018-08-13T13:45:17.492Z,2.93
2018-08-13T13:47:46.252Z,4.10
2018-08-13T13:50:16.447Z,3.30
2018-08-13T13:52:46.093Z,4.07
2018-08-13T13:55:16.991Z,4.87
2018-08-13T13:57:45.637Z,3.00
2018-08-13T14:00:18.335Z,3.10
2018-08-13T14:02:50.297Z,4.53
2018-08-13T14:05:20.798Z,4.80
2018-08-13T14:07:50.500Z,4.93
2018-08-13T14:10:22.706Z,3.50
2018-08-13T14:12:52.883Z,4.17
2018-08-13T14:15:22.793Z,3.30
2018-08-13T14:17:52.490Z,3.63
2018-08-13T14:20:22.305Z,3.57
2018-08-13T14:22:50.877Z,3.03
2018-08-13T14:25:19.419Z,4.53
2018-08-13T14:27:48.256Z,4.17
2018-08-13T14:30:23.385Z,4.67
2018-08-13T14:32:52.291Z,6.53
2018-08-13T14:35:23.425Z,4.73
2018-08-13T14:37:53.958Z,5.80
2018-08-13T14:40:22.746Z,3.50
2018-08-13T14:42:52.467Z,3.77
2018-08-13T14:45:22.592Z,4.67
2018-08-13T14:47:53.087Z,3.50
2018-08-13T14:50:22.367Z,4.03
2018-08-13T14:52:52.266Z,3.53
2018-08-13T14:55:23.641Z,5.10
2018-08-13T14:57:52.695Z,4.13
2018-08-13T15:00:30.843Z,4.50
2018-08-13T15:02:59.512Z,4.87
2018-08-13T15:05:28.062Z,5.13
2018-08-13T15:07:56.652Z,4.03
2018-08-13T15:10:26.297Z,2.97
2018-08-13T15:12:55.574Z,2.40
2018-08-13T15:15:24.386Z,2.27
2018-08-13T15:17:55.050Z,2.83
2018-08-13T15:20:30.512Z,2.73
2018-08-13T15:22:59.734Z,1.83
2018-08-13T15:25:29.429Z,2.03
2018-08-13T15:27:57.880Z,3.10
2018-08-13T15:30:27.377Z,3.53
2018-08-13T15:32:56.950Z,3.60
2018-08-13T15:35:25.850Z,3.73
2018-08-13T15:37:54.634Z,3.57
2018-08-13T15:40:24.614Z,4.33
2018-08-13T15:42:54.765Z,5.50
2018-08-13T15:45:24.538Z,5.53
2018-08-13T15:47:53.731Z,4.97
2018-08-13T15:50:23.107Z,6.40
2018-08-13T15:52:52.103Z,4.83
2018-08-13T15:55:20.580Z,4.50
2018-08-13T15:57:49.821Z,5.03
2018-08-13T16:00:23.395Z,6.33
2018-08-13T16:02:53.058Z,5.43
2018-08-13T16:05:22.844Z,9.30
2018-08-13T16:07:51.700Z,5.63
2018-08-13T16:10:20.851Z,5.23
2018-08-13T16:12:49.257Z,7.37
2018-08-13T16:15:17.668Z,5.90
2018-08-13T16:17:46.061Z,8.77
2018-08-13T16:20:18.485Z,7.77
2018-08-13T16:22:48.026Z,6.60
2018-08-13T16:25:17.529Z,7.07
2018-08-13T16:27:46.891Z,7.83
2018-08-13T16:30:24.595Z,7.40
2018-08-13T16:32:53.011Z,6.67
2018-08-13T16:35:23.062Z,6.07
2018-08-13T16:37:51.520Z,7.40
2018-08-13T16:40:20.706Z,6.37
2018-08-13T16:42:50.582Z,6.17
2018-08-13T16:45:21.169Z,7.40
2018-08-13T16:47:50.100Z,6.90
2018-08-13T16:50:23.336Z,4.30
2018-08-13T16:52:52.712Z,5.17
2018-08-13T16:55:21.124Z,6.63
2018-08-13T16:57:49.530Z,6.60
2018-08-13T17:00:21.236Z,6.90
2018-08-13T17:02:50.366Z,4.73
2018-08-13T17:05:19.188Z,4.67
2018-08-13T17:07:47.582Z,4.40
2018-08-13T17:10:23.448Z,4.77
2018-08-13T17:12:53.355Z,2.77
2018-08-13T17:15:22.503Z,3.37
2018-08-13T17:17:53.523Z,2.70
2018-08-13T17:20:39.292Z,3.70
2018-08-13T17:23:08.004Z,2.77
2018-08-13T17:25:36.478Z,4.03
2018-08-13T17:28:04.989Z,3.67
2018-08-13T17:30:33.726Z,5.17
2018-08-13T17:33:02.337Z,4.00
2018-08-13T17:35:33.359Z,5.43
2018-08-13T17:38:03.216Z,4.53
2018-08-13T17:40:31.888Z,7.23
2018-08-13T17:43:00.515Z,4.53
2018-08-13T17:45:28.735Z,6.60
2018-08-13T17:47:57.148Z,5.40
2018-08-13T17:50:25.691Z,5.63
2018-08-13T17:52:54.095Z,5.57
2018-08-13T17:55:22.495Z,6.53
2018-08-13T17:57:50.941Z,4.30
2018-08-13T18:00:23.643Z,7.00
2018-08-13T18:02:52.027Z,5.43
2018-08-13T18:05:23.870Z,5.20
2018-08-13T18:07:53.371Z,4.73
2018-08-13T18:10:24.921Z,6.53
2018-08-13T18:12:53.769Z,4.80
2018-08-13T18:15:22.216Z,6.63
2018-08-13T18:17:50.675Z,4.93
2018-08-13T18:20:19.088Z,5.73
2018-08-13T18:22:47.503Z,6.07
2018-08-13T18:25:17.199Z,6.23
2018-08-13T18:27:47.357Z,6.67
2018-08-13T18:30:18.924Z,7.10
2018-08-13T18:32:47.432Z,13.00
2018-08-13T18:35:16.735Z,6.93
2018-08-13T18:37:45.353Z,9.07
2018-08-13T18:40:17.803Z,6.90
2018-08-13T18:42:46.849Z,7.33
2018-08-13T18:45:15.792Z,8.50
2018-08-13T18:47:44.810Z,8.40
2018-08-13T18:50:16.208Z,8.47
2018-08-13T18:52:45.698Z,7.00
2018-08-13T18:55:18.970Z,6.77
2018-08-13T18:57:48.294Z,8.93
2018-08-13T19:00:21.599Z,7.93
2018-08-13T19:02:50.042Z,7.97
2018-08-13T19:05:20.200Z,8.87
2018-08-13T19:07:49.698Z,10.77
2018-08-13T19:10:19.211Z,10.23
2018-08-13T19:12:47.611Z,10.83
2018-08-13T19:15:19.634Z,10.83
2018-08-13T19:17:50.170Z,10.27
2018-08-13T19:20:18.666Z,13.10
2018-08-13T19:22:47.586Z,11.97
2018-08-13T19:25:22.191Z,11.53
2018-08-13T19:27:50.736Z,10.03
2018-08-13T19:30:20.052Z,10.27
2018-08-13T19:32:49.863Z,13.27
2018-08-13T19:35:18.725Z,9.17
2018-08-13T19:37:47.561Z,10.33
2018-08-13T19:40:19.801Z,10.77
2018-08-13T19:42:49.920Z,11.40
2018-08-13T19:45:19.453Z,11.93
2018-08-13T19:47:48.965Z,10.67
2018-08-13T19:50:17.615Z,12.10
2018-08-13T19:52:47.169Z,8.50
2018-08-13T19:55:16.737Z,10.70
2018-08-13T19:57:45.349Z,13.13
2018-08-13T20:00:17.380Z,9.43
2018-08-13T20:02:46.997Z,8.90
2018-08-13T20:05:15.407Z,12.20
2018-08-13T20:07:44.338Z,9.43
2018-08-13T20:10:14.507Z,10.30
2018-08-13T20:12:44.536Z,11.50
2018-08-13T20:15:13.425Z,11.47
2018-08-13T20:17:42.496Z,9.63
2018-08-13T20:20:17.836Z,11.07
2018-08-13T20:22:47.040Z,11.57
2018-08-13T20:25:17.325Z,12.73
2018-08-13T20:27:46.699Z,11.73
2018-08-13T20:30:17.617Z,10.30
2018-08-13T20:32:47.646Z,12.53
2018-08-13T20:35:16.223Z,9.87
2018-08-13T20:37:44.946Z,11.93
2018-08-13T20:40:15.614Z,10.37
2018-08-13T20:42:44.628Z,9.63
2018-08-13T20:45:15.643Z,11.80
2018-08-13T20:47:44.682Z,13.67
2018-08-13T20:50:15.372Z,13.03
2018-08-13T20:52:44.992Z,13.27
2018-08-13T20:55:16.243Z,10.47
2018-08-13T20:57:45.403Z,10.57
2018-08-13T21:00:15.250Z,14.33
2018-08-13T21:02:44.847Z,12.67
2018-08-13T21:05:13.250Z,12.43
2018-08-13T21:07:41.682Z,17.10
2018-08-13T21:10:12.436Z,16.13
2018-08-13T21:12:40.845Z,13.60
2018-08-13T21:15:11.773Z,13.43
2018-08-13T21:17:40.758Z,13.13
2018-08-13T21:20:10.946Z,16.90
2018-08-13T21:22:39.353Z,11.93
2018-08-13T21:25:11.840Z,13.90
2018-08-13T21:27:41.139Z,14.40
2018-08-13T21:30:09.630Z,14.87
2018-08-13T21:32:38.062Z,14.60
2018-08-13T21:35:06.588Z,12.33
2018-08-13T21:37:41.605Z,15.43
2018-08-13T21:40:10.088Z,12.80
2018-08-13T21:42:38.504Z,13.60
2018-08-13T21:45:08.649Z,15.80
2018-08-13T21:47:37.399Z,14.07
2018-08-13T21:50:10.711Z,18.03
2018-08-13T21:52:39.212Z,19.67
2018-08-13T21:55:08.763Z,15.83
2018-08-13T21:57:37.155Z,12.47
2018-08-13T22:00:13.802Z,13.37
2018-08-13T22:02:42.208Z,17.20
2018-08-13T22:05:10.637Z,16.40
2018-08-13T22:07:39.040Z,20.50
2018-08-13T22:10:08.837Z,14.70
2018-08-13T22:12:37.338Z,14.73
2018-08-13T22:15:18.597Z,16.43
2018-08-13T22:17:47.044Z,20.60
2018-08-13T22:20:15.450Z,16.70
2018-08-13T22:22:44.040Z,23.63
2018-08-13T22:25:15.451Z,20.60
2018-08-13T22:27:43.833Z,23.93
2018-08-13T22:30:12.227Z,19.07
2018-08-13T22:32:40.655Z,17.80
2018-08-13T22:35:09.909Z,18.30
2018-08-13T22:37:40.560Z,20.07
2018-08-13T22:40:15.948Z,19.37
2018-08-13T22:42:44.942Z,22.13
2018-08-13T22:45:17.520Z,24.17
2018-08-13T22:47:45.915Z,19.97
2018-08-13T22:50:14.338Z,20.20
2018-08-13T22:52:42.827Z,22.83
2018-08-13T22:55:13.103Z,16.33
2018-08-13T22:57:41.514Z,23.63
2018-08-13T23:00:13.669Z,21.87
2018-08-13T23:02:42.516Z,22.17
2018-08-13T23:05:15.235Z,22.50
2018-08-13T23:07:43.679Z,22.60
2018-08-13T23:10:15.304Z,17.43
2018-08-13T23:12:44.248Z,19.03
2018-08-13T23:15:14.668Z,19.53
2018-08-13T23:17:43.654Z,19.23
2018-08-13T23:20:15.192Z,16.50
2018-08-13T23:22:48.525Z,20.13
2018-08-13T23:25:17.100Z,16.33
2018-08-13T23:27:45.763Z,16.47
2018-08-13T23:30:15.947Z,15.00
2018-08-13T23:32:45.964Z,22.53
2018-08-13T23:35:15.326Z,23.20
2018-08-13T23:37:43.735Z,14.17
2018-08-13T23:40:12.118Z,23.93
2018-08-13T23:42:40.504Z,19.47
2018-08-13T23:45:12.008Z,17.83
2018-08-13T23:47:40.428Z,19.20
2018-08-13T23:50:10.923Z,15.20
2018-08-13T23:52:40.632Z,18.90
2018-08-13T23:55:42.271Z,17.13
2018-08-13T23:58:13.121Z,18.03
